Time;durP1;ratioP1;P1;durP2;ratioP2;P2;SDS_P1;SDS_P2;PMS_P1;PMS_P2;Temp;Humidity;BMP_temperature;BMP_pressure;BME280_temperature;BME280_humidity;BME280_pressure;Samples;Min_cycle;Max_cycle;Signal;HPM_P1;HPM_P2
2022/10/04 00:02:17;;;;;;;19.48;13.55;;;11.00;88.60;;;;;;4998351;28;20038;-75
2022/10/04 00:04:52;;;;;;;25.58;13.93;;;11.00;88.80;;;;;;5000549;28;20038;-75
2022/10/04 00:07:25;;;;;;;26.38;13.85;;;11.00;88.80;;;;;;4997321;28;20046;-77
2022/10/04 00:10:12;;;;;;;19.50;13.40;;;11.00;88.90;;;;;;4996983;28;20030;-72
2022/10/04 00:12:44;;;;;;;21.02;13.20;;;11.00;88.90;;;;;;4999426;28;20454;-75
2022/10/04 00:15:26;;;;;;;24.38;13.75;;;11.00;88.90;;;;;;5002084;28;20053;-76
2022/10/04 00:18:27;;;;;;;20.50;13.98;;;10.90;89.00;;;;;;5013684;28;20072;-75
2022/10/04 00:20:52;;;;;;;18.77;13.32;;;11.00;89.00;;;;;;5002542;28;20113;-75
2022/10/04 00:23:27;;;;;;;21.20;13.95;;;11.00;89.00;;;;;;4999257;28;20116;-77
2022/10/04 00:25:55;;;;;;;;;;;11.00;89.00;;;;;;4996669;28;20038;-74
2022/10/04 00:28:23;;;;;;;20.95;13.75;;;11.00;88.90;;;;;;4999008;28;19913;-75
2022/10/04 00:31:24;;;;;;;22.70;13.75;;;11.00;89.00;;;;;;5001349;28;20026;-75
2022/10/04 00:33:52;;;;;;;23.80;14.52;;;11.00;89.00;;;;;;4986213;28;20048;-74
2022/10/04 00:36:23;;;;;;;23.20;14.15;;;11.00;89.10;;;;;;5004731;28;20037;-75
2022/10/04 00:39:04;;;;;;;22.27;14.85;;;11.00;89.10;;;;;;5004537;28;20034;-74
2022/10/04 00:41:47;;;;;;;27.67;14.95;;;11.00;89.00;;;;;;5004869;28;20034;-74
2022/10/04 00:44:31;;;;;;;24.67;15.15;;;10.90;89.10;;;;;;5000351;28;20038;-75
2022/10/04 00:47:00;;;;;;;22.33;14.30;;;10.90;89.10;;;;;;5002164;28;20032;-75
2022/10/04 00:49:35;;;;;;;22.20;14.98;;;10.80;89.10;;;;;;5003862;28;20042;-75
2022/10/04 00:52:09;;;;;;;23.20;15.20;;;10.80;89.20;;;;;;5003608;28;20044;-74
2022/10/04 00:54:40;;;;;;;;;;;10.80;89.20;;;;;;5006798;28;20053;-74
2022/10/04 00:57:16;;;;;;;22.55;14.43;;;10.80;89.20;;;;;;5012017;28;20562;-74
2022/10/04 00:59:45;;;;;;;21.77;13.98;;;10.80;89.20;;;;;;5006509;28;20501;-74
2022/10/04 01:02:20;;;;;;;20.35;15.77;;;10.70;89.20;;;;;;5009325;28;20385;-75
2022/10/04 01:05:00;;;;;;;24.27;15.25;;;10.70;89.20;;;;;;5008791;28;20369;-76
2022/10/04 01:07:40;;;;;;;20.65;13.52;;;10.70;89.20;;;;;;5002544;28;20029;-75
2022/10/04 01:10:35;;;;;;;22.92;13.60;;;10.60;89.10;;;;;;5001986;28;20029;-74
2022/10/04 01:13:12;;;;;;;25.05;15.55;;;10.60;89.20;;;;;;5007904;28;20121;-75
2022/10/04 01:16:03;;;;;;;23.38;15.02;;;10.60;89.30;;;;;;5006955;28;20042;-78
2022/10/04 01:18:31;;;;;;;22.48;14.45;;;10.60;89.30;;;;;;5005920;28;20062;-76
2022/10/04 01:21:19;;;;;;;22.02;14.90;;;10.60;89.30;;;;;;5003701;28;20370;-76
2022/10/04 01:23:50;;;;;;;22.17;15.77;;;10.50;89.30;;;;;;5003773;28;20169;-78
2022/10/04 01:26:36;;;;;;;24.25;16.13;;;10.50;89.30;;;;;;5003795;28;20097;-78
2022/10/04 01:29:23;;;;;;;22.15;14.98;;;10.50;89.30;;;;;;5005178;28;20125;-77
2022/10/04 01:31:51;;;;;;;25.83;15.27;;;10.40;89.30;;;;;;5010031;28;20500;-76
2022/10/04 01:34:19;;;;;;;21.05;14.80;;;10.40;89.30;;;;;;5006970;28;20033;-75
2022/10/04 01:36:47;;;;;;;25.70;15.85;;;10.40;89.10;;;;;;5006500;28;20050;-76
2022/10/04 01:39:15;;;;;;;22.88;16.35;;;10.30;89.20;;;;;;5002955;28;20125;-77
2022/10/04 01:41:58;;;;;;;24.33;16.58;;;10.30;89.20;;;;;;5005768;28;20030;-75
2022/10/04 01:44:43;;;;;;;23.77;16.15;;;10.30;89.30;;;;;;5005119;28;20473;-77
2022/10/04 01:47:13;;;;;;;21.97;16.13;;;10.30;89.40;;;;;;5007282;28;20042;-75
2022/10/04 01:49:42;;;;;;;28.67;16.90;;;10.30;89.50;;;;;;5007852;28;20120;-75
2022/10/04 01:52:28;;;;;;;20.48;16.23;;;10.20;89.50;;;;;;5007259;28;20044;-76
2022/10/04 01:55:10;;;;;;;24.52;17.25;;;10.20;89.60;;;;;;5000486;28;20034;-75
2022/10/04 01:57:52;;;;;;;26.15;18.02;;;10.20;89.60;;;;;;5022066;28;20038;-75
2022/10/04 02:00:20;;;;;;;25.25;16.58;;;10.20;89.70;;;;;;5005245;28;20038;-77
2022/10/04 02:03:16;;;;;;;27.25;17.75;;;10.20;89.80;;;;;;5006221;28;20050;-75
2022/10/04 02:05:48;;;;;;;25.10;16.48;;;10.20;89.80;;;;;;5002336;28;20405;-75
2022/10/04 02:08:17;;;;;;;27.58;18.85;;;10.20;89.90;;;;;;5007172;28;20113;-74
2022/10/04 02:10:44;;;;;;;22.48;16.35;;;10.20;90.00;;;;;;5005996;28;20062;-76
2022/10/04 02:13:17;;;;;;;20.88;15.70;;;10.20;90.10;;;;;;5008405;28;20052;-75
2022/10/04 02:15:44;;;;;;;23.35;16.15;;;10.20;90.10;;;;;;5002545;28;20446;-75
2022/10/04 02:18:16;;;;;;;23.85;16.58;;;10.20;90.10;;;;;;5008023;28;20045;-75
2022/10/04 02:20:44;;;;;;;26.92;16.77;;;10.20;90.20;;;;;;5004640;28;20030;-75
2022/10/04 02:23:11;;;;;;;25.52;16.58;;;10.20;90.30;;;;;;5004121;28;20030;-75
2022/10/04 02:25:38;;;;;;;26.77;16.10;;;10.20;90.20;;;;;;5005867;28;20113;-76
2022/10/04 02:28:09;;;;;;;23.30;16.88;;;10.20;90.20;;;;;;5005144;28;20852;-76
2022/10/04 02:30:40;;;;;;;25.05;16.63;;;10.20;90.30;;;;;;5006360;28;20108;-76
2022/10/04 02:33:07;;;;;;;19.73;14.70;;;10.10;90.20;;;;;;5003301;28;20154;-76
2022/10/04 02:35:45;;;;;;;25.23;16.92;;;10.10;90.20;;;;;;5005110;28;20416;-74
2022/10/04 02:38:27;;;;;;;26.10;17.48;;;10.10;90.20;;;;;;5004972;28;20496;-76
2022/10/04 02:40:58;;;;;;;33.08;18.17;;;10.10;90.20;;;;;;5007276;28;20030;-75
2022/10/04 02:43:29;;;;;;;28.20;17.95;;;10.10;90.30;;;;;;5003344;28;20461;-75
2022/10/04 02:46:06;;;;;;;24.33;16.08;;;10.10;90.40;;;;;;5005623;28;20104;-76
2022/10/04 02:48:54;;;;;;;24.90;16.52;;;10.10;90.20;;;;;;5007165;28;20433;-76
2022/10/04 02:51:24;;;;;;;25.73;18.65;;;10.10;90.30;;;;;;5003542;28;20036;-76
2022/10/04 02:53:56;;;;;;;26.75;17.80;;;10.10;90.40;;;;;;5021716;28;20030;-77
2022/10/04 02:56:24;;;;;;;24.85;17.10;;;10.10;90.30;;;;;;5003902;28;20390;-76
2022/10/04 02:58:51;;;;;;;27.73;19.85;;;10.10;90.40;;;;;;5006469;28;20036;-76
2022/10/04 03:01:25;;;;;;;30.95;19.95;;;10.10;90.50;;;;;;5004071;28;20040;-76
2022/10/04 03:03:52;;;;;;;30.00;19.92;;;10.10;90.50;;;;;;5006714;28;20492;-76
2022/10/04 03:06:20;;;;;;;27.90;18.75;;;10.20;90.80;;;;;;5007960;28;20482;-76
2022/10/04 03:08:48;;;;;;;32.90;20.77;;;10.20;90.90;;;;;;5004434;28;20037;-76
2022/10/04 03:11:16;;;;;;;34.38;21.02;;;10.20;90.80;;;;;;5001035;28;20042;-75
2022/10/04 03:13:45;;;;;;;32.95;21.23;;;10.30;90.90;;;;;;5005711;28;20042;-76
2022/10/04 03:16:12;;;;;;;32.47;21.90;;;10.30;90.90;;;;;;5003672;28;20065;-75
2022/10/04 03:18:38;;;;;;;31.77;21.63;;;10.20;90.90;;;;;;5003810;28;20049;-75
2022/10/04 03:21:06;;;;;;;32.13;21.48;;;10.30;90.90;;;;;;5004711;28;20030;-76
2022/10/04 03:23:33;;;;;;;27.95;19.55;;;10.30;90.80;;;;;;5004727;28;20060;-75
2022/10/04 03:26:31;;;;;;;32.08;21.63;;;10.20;90.90;;;;;;5004439;28;20461;-76
2022/10/04 03:28:58;;;;;;;30.70;20.60;;;10.20;90.90;;;;;;4979103;28;20546;-76
2022/10/04 03:31:26;;;;;;;31.40;20.88;;;10.20;91.00;;;;;;5004302;28;20038;-76
2022/10/04 03:33:56;;;;;;;28.25;21.30;;;10.10;91.00;;;;;;5000886;28;20453;-75
2022/10/04 03:36:24;;;;;;;29.83;20.73;;;10.20;91.00;;;;;;5003503;28;20030;-76
2022/10/04 03:38:52;;;;;;;29.63;20.63;;;10.20;91.00;;;;;;5004893;28;20061;-76
2022/10/04 03:41:18;;;;;;;33.17;21.73;;;10.20;91.10;;;;;;5003989;28;20034;-76
2022/10/04 03:43:46;;;;;;;31.98;21.50;;;10.10;91.10;;;;;;5017796;28;20121;-76
2022/10/04 03:46:13;;;;;;;32.28;22.13;;;10.10;91.10;;;;;;5004460;28;20056;-77
2022/10/04 03:48:44;;;;;;;34.47;21.98;;;10.10;91.20;;;;;;5010079;28;20030;-78
2022/10/04 03:51:15;;;;;;;31.20;21.80;;;10.10;91.20;;;;;;5002204;28;20072;-75
2022/10/04 03:53:46;;;;;;;37.13;21.90;;;10.10;91.20;;;;;;5005686;28;20133;-74
2022/10/04 03:56:19;;;;;;;32.63;21.50;;;10.10;91.10;;;;;;5004698;28;20480;-75
2022/10/04 03:58:46;;;;;;;37.97;23.02;;;10.10;91.10;;;;;;5006737;28;20046;-77
2022/10/04 04:01:25;;;;;;;35.30;22.42;;;10.10;91.00;;;;;;5004392;28;20030;-76
2022/10/04 04:04:14;;;;;;;32.97;23.50;;;10.10;91.10;;;;;;5008211;28;20044;-76
2022/10/04 04:06:51;;;;;;;40.25;23.98;;;10.10;91.10;;;;;;5006079;28;20073;-75
2022/10/04 04:09:55;;;;;;;32.05;22.58;;;10.10;91.10;;;;;;5004642;28;20473;-75
2022/10/04 04:12:42;;;;;;;36.67;24.17;;;10.10;91.10;;;;;;5004834;28;20033;-76
2022/10/04 04:15:10;;;;;;;35.92;25.23;;;10.10;91.10;;;;;;5001965;28;20044;-76
2022/10/04 04:17:50;;;;;;;29.88;23.15;;;10.10;91.10;;;;;;5015159;28;20053;-75
2022/10/04 04:20:29;;;;;;;34.92;23.80;;;10.00;91.20;;;;;;5002936;28;20116;-76
2022/10/04 04:23:38;;;;;;;37.75;25.73;;;10.00;91.10;;;;;;5000114;28;20033;-75
2022/10/04 04:26:25;;;;;;;34.80;24.38;;;10.00;91.20;;;;;;5005383;28;20645;-76
2022/10/04 04:29:18;;;;;;;36.20;24.35;;;10.00;91.20;;;;;;4990008;28;20027;-75
2022/10/04 04:31:54;;;;;;;37.38;23.58;;;10.00;91.20;;;;;;4988792;28;20397;-77
2022/10/04 04:34:28;;;;;;;33.33;23.33;;;9.90;91.20;;;;;;4991962;28;20042;-75
2022/10/04 04:36:59;;;;;;;30.70;22.77;;;10.00;91.20;;;;;;4991713;28;20038;-76
2022/10/04 04:39:44;;;;;;;31.52;23.00;;;10.00;91.20;;;;;;4990068;28;20042;-76
2022/10/04 04:42:09;;;;;;;33.03;23.30;;;9.90;91.20;;;;;;4992041;28;20041;-75
2022/10/04 04:44:52;;;;;;;30.95;21.60;;;9.90;91.20;;;;;;5010649;28;20369;-75
2022/10/04 04:47:33;;;;;;;31.80;21.20;;;9.80;91.20;;;;;;4994490;28;20049;-75
2022/10/04 04:50:19;;;;;;;28.63;20.80;;;9.80;91.30;;;;;;5008798;28;20034;-76
2022/10/04 04:52:51;;;;;;;29.13;21.95;;;9.80;91.30;;;;;;5014738;28;20030;-76
2022/10/04 04:55:23;;;;;;;31.50;22.77;;;9.70;91.30;;;;;;5000613;28;20080;-76
2022/10/04 04:57:51;;;;;;;30.83;21.33;;;9.60;91.30;;;;;;5000250;28;20042;-77
2022/10/04 05:00:22;;;;;;;30.23;21.90;;;9.60;91.30;;;;;;4999323;28;20050;-77
2022/10/04 05:02:56;;;;;;;32.35;22.05;;;9.60;91.40;;;;;;5001298;28;20033;-75
2022/10/04 05:05:21;;;;;;;30.80;22.63;;;9.60;91.40;;;;;;5006050;28;20042;-75
2022/10/04 05:07:48;;;;;;;31.33;21.75;;;9.60;91.40;;;;;;5001321;28;20091;-75
2022/10/04 05:10:21;;;;;;;32.85;22.08;;;9.60;91.30;;;;;;5004940;28;20073;-76
2022/10/04 05:12:48;;;;;;;29.60;21.20;;;9.60;91.40;;;;;;5001691;28;20053;-75
2022/10/04 05:15:14;;;;;;;37.85;23.90;;;9.60;91.40;;;;;;4995944;28;20038;-77
2022/10/04 05:17:39;;;;;;;35.13;24.35;;;9.60;91.40;;;;;;4989632;28;20163;-76
2022/10/04 05:20:06;;;;;;;32.80;22.85;;;9.60;91.40;;;;;;5005205;28;20034;-76
2022/10/04 05:22:32;;;;;;;34.40;22.88;;;9.60;91.30;;;;;;4997981;28;20034;-76
2022/10/04 05:25:04;;;;;;;31.40;21.65;;;9.60;91.20;;;;;;4994969;28;20704;-75
2022/10/04 05:27:38;;;;;;;35.15;23.77;;;9.50;91.20;;;;;;5005454;28;20130;-75
2022/10/04 05:30:23;;;;;;;33.00;24.00;;;9.50;91.20;;;;;;4998162;28;20034;-77
2022/10/04 05:33:08;;;;;;;31.80;23.10;;;9.50;91.20;;;;;;5004244;28;20041;-75
2022/10/04 05:35:58;;;;;;;32.38;22.85;;;9.50;91.20;;;;;;4994870;28;20039;-77
2022/10/04 05:38:54;;;;;;;42.35;24.73;;;9.40;91.10;;;;;;5003851;28;20046;-74
2022/10/04 05:42:07;;;;;;;36.10;23.98;;;9.40;91.20;;;;;;4997028;28;20196;-75
2022/10/04 05:45:00;;;;;;;40.38;24.60;;;9.40;91.20;;;;;;5010454;28;20149;-76
2022/10/04 05:47:29;;;;;;;37.28;24.80;;;9.40;91.10;;;;;;4996850;28;20048;-76
2022/10/04 05:49:56;;;;;;;35.63;24.20;;;9.40;91.20;;;;;;5003936;28;20446;-77
2022/10/04 05:52:37;;;;;;;36.75;24.08;;;9.40;91.20;;;;;;5005564;28;20042;-74
2022/10/04 05:55:15;;;;;;;33.95;23.75;;;9.40;91.30;;;;;;5006119;28;20034;-76
2022/10/04 05:58:27;;;;;;;36.80;23.98;;;9.40;91.10;;;;;;5005511;28;20042;-76
2022/10/04 06:01:21;;;;;;;41.50;24.63;;;9.50;91.20;;;;;;5003232;28;20060;-76
2022/10/04 06:04:08;;;;;;;37.33;25.25;;;9.40;91.30;;;;;;5002862;28;20041;-75
2022/10/04 06:06:52;;;;;;;35.25;24.45;;;9.50;91.40;;;;;;5006895;28;20030;-75
2022/10/04 06:09:46;;;;;;;44.58;25.92;;;9.50;91.40;;;;;;5004178;28;20239;-76
2022/10/04 06:12:17;;;;;;;39.20;25.25;;;9.50;91.40;;;;;;5006268;28;20030;-78
2022/10/04 06:15:19;;;;;;;38.63;26.00;;;9.50;91.40;;;;;;5007596;28;20036;-75
2022/10/04 06:18:27;;;;;;;36.78;25.35;;;9.60;91.40;;;;;;5020801;28;20037;-76
2022/10/04 06:21:14;;;;;;;41.10;25.08;;;9.60;91.40;;;;;;5003832;28;20038;-76
2022/10/04 06:24:04;;;;;;;39.92;26.17;;;9.70;91.40;;;;;;4994095;28;20034;-76
2022/10/04 06:26:40;;;;;;;38.88;25.77;;;9.80;91.30;;;;;;5006858;28;20045;-75
2022/10/04 06:29:13;;;;;;;37.08;24.23;;;9.80;91.00;;;;;;5005264;28;20105;-78
2022/10/04 06:32:18;;;;;;;42.17;25.33;;;9.90;91.00;;;;;;5004414;28;20108;-75
2022/10/04 06:35:06;;;;;;;41.28;24.13;;;9.80;90.60;;;;;;5001813;28;20114;-74
2022/10/04 06:37:50;;;;;;;37.08;24.40;;;9.90;90.70;;;;;;5002651;28;20462;-75
2022/10/04 06:40:51;;;;;;;36.55;23.88;;;10.00;90.60;;;;;;5010982;28;20050;-77
2022/10/04 06:43:44;;;;;;;40.42;25.15;;;10.10;90.60;;;;;;5009089;28;20026;-74
2022/10/04 06:46:33;;;;;;;39.70;24.98;;;10.20;90.40;;;;;;4998285;28;20040;-77
2022/10/04 06:49:08;;;;;;;37.60;23.27;;;10.30;90.40;;;;;;5007110;28;20069;-76
2022/10/04 06:51:56;;;;;;;40.90;24.75;;;10.40;90.10;;;;;;4996398;28;20042;-74
2022/10/04 06:54:40;;;;;;;36.92;25.17;;;10.50;89.90;;;;;;5004988;28;20045;-74
2022/10/04 06:57:18;;;;;;;42.15;24.42;;;10.60;89.70;;;;;;5000789;28;20558;-75
2022/10/04 06:59:53;;;;;;;40.05;23.85;;;10.60;89.60;;;;;;4999699;28;20038;-75
2022/10/04 07:02:21;;;;;;;;;;;10.70;89.50;;;;;;5002186;28;20038;-78
2022/10/04 07:04:59;;;;;;;38.42;25.08;;;10.70;89.30;;;;;;5006804;28;19948;-75
2022/10/04 07:07:35;;;;;;;37.38;23.98;;;10.80;89.20;;;;;;5006306;28;20065;-75
2022/10/04 07:10:07;;;;;;;37.42;24.25;;;11.00;89.20;;;;;;5006958;28;20125;-75
2022/10/04 07:12:37;;;;;;;35.40;24.55;;;11.00;89.00;;;;;;5005107;28;20473;-74
2022/10/04 07:15:27;;;;;;;36.28;23.48;;;11.10;88.70;;;;;;5003961;28;20042;-75
2022/10/04 07:17:57;;;;;;;34.22;22.63;;;11.10;88.40;;;;;;5005178;28;20045;-75
2022/10/04 07:20:30;;;;;;;37.03;23.48;;;11.20;88.30;;;;;;4993862;28;20060;-74
2022/10/04 07:23:04;;;;;;;32.40;23.13;;;11.20;88.20;;;;;;4994298;28;20087;-74
2022/10/04 07:25:35;;;;;;;32.20;22.60;;;11.30;88.20;;;;;;5000525;28;20105;-74
2022/10/04 07:31:04;;;;;;;31.17;21.88;;;11.60;87.70;;;;;;5002204;28;20064;-73
2022/10/04 07:33:34;;;;;;;31.40;22.92;;;11.70;87.50;;;;;;4999133;28;20041;-73
2022/10/04 07:36:09;;;;;;;33.35;22.17;;;11.80;87.20;;;;;;5004999;28;20034;-74
2022/10/04 07:39:13;;;;;;;31.50;21.23;;;11.80;87.00;;;;;;4999535;28;20041;-74
2022/10/04 07:42:13;;;;;;;27.75;20.00;;;11.90;86.40;;;;;;4963841;28;20442;-75
2022/10/04 07:44:41;;;;;;;29.48;21.17;;;11.90;86.70;;;;;;5002594;28;20045;-76
2022/10/04 07:47:21;;;;;;;29.48;20.65;;;12.10;86.80;;;;;;5000224;28;20038;-74
2022/10/04 07:49:52;;;;;;;26.75;20.88;;;12.20;86.40;;;;;;5002833;28;20033;-75
2022/10/04 07:52:27;;;;;;;29.98;20.17;;;12.40;86.00;;;;;;5004689;28;20060;-74
2022/10/04 07:55:19;;;;;;;33.17;21.30;;;12.60;85.80;;;;;;5004474;28;20034;-74
2022/10/04 07:58:19;;;;;;;23.75;19.20;;;12.70;84.70;;;;;;5006929;28;20124;-75
2022/10/04 08:00:48;;;;;;;28.33;20.02;;;12.90;85.00;;;;;;5017143;28;20084;-76
2022/10/04 08:03:40;;;;;;;28.38;19.10;;;13.10;84.40;;;;;;4998496;28;20038;-76
2022/10/04 08:06:31;;;;;;;28.02;19.70;;;13.30;83.90;;;;;;5010733;28;20041;-73
2022/10/04 08:09:27;;;;;;;25.08;17.33;;;13.60;82.70;;;;;;4998494;28;20049;-74
2022/10/04 08:12:02;;;;;;;;;;;13.70;82.40;;;;;;4992679;28;20044;-75
2022/10/04 08:14:53;;;;;;;27.15;17.58;;;13.70;81.50;;;;;;5003724;28;19920;-74
2022/10/04 08:17:52;;;;;;;28.00;18.13;;;13.60;82.00;;;;;;5003675;28;20048;-75
2022/10/04 08:20:31;;;;;;;28.30;18.05;;;13.50;82.10;;;;;;5002880;28;20036;-74
2022/10/04 08:23:21;;;;;;;25.35;18.33;;;13.60;82.60;;;;;;5005596;28;20034;-76
2022/10/04 08:26:21;;;;;;;29.83;18.42;;;13.80;82.80;;;;;;5005074;28;20076;-75
2022/10/04 08:32:26;;;;;;;26.27;17.90;;;14.00;80.70;;;;;;5001544;28;20077;-76
2022/10/04 08:35:27;;;;;;;24.48;17.88;;;14.00;81.10;;;;;;5004919;28;20030;-75
2022/10/04 08:37:59;;;;;;;25.42;17.35;;;14.10;81.00;;;;;;5003947;28;20050;-75
2022/10/04 08:40:27;;;;;;;25.35;17.40;;;14.30;81.10;;;;;;5002711;28;20042;-75
2022/10/04 08:43:18;;;;;;;23.52;17.80;;;14.50;80.50;;;;;;5002316;28;20076;-76
2022/10/04 08:45:52;;;;;;;24.17;17.00;;;14.60;80.40;;;;;;4984400;28;20026;-75
2022/10/04 08:48:37;;;;;;;20.40;16.40;;;14.80;79.20;;;;;;5002236;28;20092;-76
2022/10/04 08:51:22;;;;;;;25.75;17.52;;;14.80;78.80;;;;;;4991041;28;20465;-77
2022/10/04 08:53:47;;;;;;;24.13;17.25;;;15.00;78.90;;;;;;4990589;28;20088;-77
2022/10/04 08:56:35;;;;;;;19.65;15.43;;;15.00;78.10;;;;;;4990418;28;20069;-77
2022/10/04 08:59:20;;;;;;;27.85;17.00;;;15.10;78.10;;;;;;4987726;28;20088;-77
2022/10/04 09:01:46;;;;;;;22.45;15.38;;;15.10;78.00;;;;;;4988790;28;20557;-76
2022/10/04 09:04:21;;;;;;;23.20;17.05;;;15.10;77.90;;;;;;4991677;28;20324;-76
2022/10/04 09:07:32;;;;;;;21.20;16.13;;;15.10;78.00;;;;;;4994122;28;20165;-76
2022/10/04 09:10:21;;;;;;;22.45;16.13;;;15.20;78.20;;;;;;4983140;28;20019;-76
2022/10/04 09:13:09;;;;;;;22.20;15.15;;;15.20;77.80;;;;;;4991007;28;20104;-80
2022/10/04 09:16:01;;;;;;;22.02;15.10;;;15.10;78.00;;;;;;5008735;28;20042;-73
2022/10/04 09:18:42;;;;;;;22.33;15.35;;;15.10;78.30;;;;;;5008242;28;20542;-74
2022/10/04 09:21:25;;;;;;;21.27;15.98;;;15.10;78.60;;;;;;5013999;28;20092;-73
2022/10/04 09:24:03;;;;;;;22.77;16.35;;;15.10;78.40;;;;;;5005423;28;20072;-74
2022/10/04 09:26:53;;;;;;;20.77;14.80;;;15.50;78.40;;;;;;5007168;28;20041;-74
2022/10/04 09:29:40;;;;;;;21.38;15.43;;;15.90;77.00;;;;;;5001237;28;20466;-78
2022/10/04 09:32:15;;;;;;;18.80;14.25;;;16.10;76.00;;;;;;5007694;28;20022;-76
2022/10/04 09:35:07;;;;;;;21.15;15.00;;;16.00;75.90;;;;;;5004964;28;20376;-78
2022/10/04 09:37:57;;;;;;;19.42;13.80;;;15.90;76.20;;;;;;5006597;28;20068;-77
2022/10/04 09:40:35;;;;;;;21.30;14.48;;;16.00;76.00;;;;;;5022166;28;20030;-75
2022/10/04 09:43:34;;;;;;;18.23;13.27;;;16.30;75.30;;;;;;5001834;28;20450;-78
2022/10/04 09:46:20;;;;;;;15.00;12.90;;;16.60;74.20;;;;;;5005917;28;20056;-75
2022/10/04 09:49:12;;;;;;;17.67;13.48;;;16.90;73.80;;;;;;5005222;28;20033;-76
2022/10/04 09:52:16;;;;;;;18.95;14.13;;;16.70;73.80;;;;;;5005708;28;20038;-76
2022/10/04 09:55:02;;;;;;;17.27;13.55;;;16.60;74.20;;;;;;5007218;28;20395;-76
2022/10/04 09:58:08;;;;;;;18.10;13.57;;;16.50;74.20;;;;;;5004600;28;20081;-75
2022/10/04 10:00:47;;;;;;;19.77;13.00;;;16.50;74.40;;;;;;5020480;28;20045;-74
2022/10/04 10:03:57;;;;;;;21.33;13.25;;;16.60;74.20;;;;;;5003785;28;20378;-75
2022/10/04 10:06:29;;;;;;;21.05;13.27;;;16.60;74.50;;;;;;4980975;28;20036;-75
2022/10/04 10:08:57;;;;;;;20.77;13.07;;;16.60;74.10;;;;;;5016217;28;20040;-76
2022/10/04 10:15:39;;;;;;;17.45;13.38;;;16.40;74.70;;;;;;4922835;28;20050;-75
2022/10/04 10:18:46;;;;;;;16.25;11.65;;;16.40;74.70;;;;;;5006697;28;20029;-74
2022/10/04 10:21:30;;;;;;;17.85;12.85;;;16.30;74.70;;;;;;4998583;28;20065;-75
2022/10/04 10:24:20;;;;;;;16.42;12.43;;;16.60;74.80;;;;;;5000504;28;20122;-76
2022/10/04 10:27:01;;;;;;;18.42;12.98;;;17.00;74.00;;;;;;5005415;28;20034;-76
2022/10/04 10:29:41;;;;;;;19.42;13.57;;;17.30;71.90;;;;;;5007366;28;20053;-75
2022/10/04 10:32:21;;;;;;;16.00;11.75;;;17.40;71.40;;;;;;4994400;28;20033;-75
2022/10/04 10:35:13;;;;;;;16.30;11.40;;;17.40;71.10;;;;;;4997644;28;20032;-74
2022/10/04 10:38:06;;;;;;;17.92;12.38;;;17.40;71.10;;;;;;5011953;28;20089;-74
2022/10/04 10:40:47;;;;;;;15.20;12.05;;;17.20;71.50;;;;;;5011419;28;20100;-75
2022/10/04 10:43:32;;;;;;;19.25;12.63;;;17.30;72.20;;;;;;5005541;28;20100;-79
2022/10/04 10:46:10;;;;;;;16.65;12.65;;;17.30;72.60;;;;;;4994884;28;20042;-74
2022/10/04 10:48:39;;;;;;;19.13;12.23;;;17.60;72.40;;;;;;4997925;28;20049;-75
2022/10/04 10:51:29;;;;;;;14.95;12.15;;;17.80;71.60;;;;;;4999380;28;20038;-75
2022/10/04 10:54:16;;;;;;;15.00;11.52;;;18.10;71.40;;;;;;4992601;28;20034;-76
2022/10/04 10:57:09;;;;;;;18.30;11.98;;;18.30;70.20;;;;;;4996533;28;20070;-77
2022/10/04 10:59:58;;;;;;;16.27;12.38;;;18.50;70.30;;;;;;4998186;28;20048;-77
2022/10/04 11:02:45;;;;;;;14.45;10.85;;;18.60;69.90;;;;;;4994699;28;20053;-75
2022/10/04 11:05:46;;;;;;;16.15;10.75;;;18.60;69.10;;;;;;4994631;28;20173;-75
2022/10/04 11:08:49;;;;;;;15.30;10.55;;;18.60;69.50;;;;;;4979957;28;20304;-76
2022/10/04 11:11:37;;;;;;;13.77;10.10;;;18.70;70.00;;;;;;5013765;28;20030;-75
2022/10/04 11:14:21;;;;;;;16.17;9.43;;;18.80;69.30;;;;;;4999162;28;20143;-76
2022/10/04 11:17:02;;;;;;;14.68;9.77;;;18.90;68.50;;;;;;4995023;28;20054;-74
2022/10/04 11:19:50;;;;;;;12.10;9.60;;;19.00;68.70;;;;;;5012827;28;20409;-75
2022/10/04 11:22:32;;;;;;;13.70;10.15;;;19.00;69.00;;;;;;4994424;28;20049;-74
2022/10/04 11:25:24;;;;;;;16.38;11.25;;;19.10;67.90;;;;;;4996538;28;20042;-76
2022/10/04 11:28:04;;;;;;;15.35;10.60;;;19.10;68.90;;;;;;4995979;28;20137;-74
2022/10/04 11:30:57;;;;;;;14.35;10.95;;;19.20;68.70;;;;;;4995211;28;20053;-73
2022/10/04 11:34:02;;;;;;;12.60;10.20;;;19.30;68.40;;;;;;4997348;28;20069;-75
2022/10/04 11:36:46;;;;;;;12.55;10.38;;;19.30;68.40;;;;;;4971772;28;20378;-75
2022/10/04 11:39:44;;;;;;;14.88;11.05;;;19.40;67.40;;;;;;4999066;28;20033;-74
2022/10/04 11:42:16;;;;;;;16.65;10.30;;;19.40;68.40;;;;;;5003053;28;20414;-78
2022/10/04 11:45:04;;;;;;;13.85;10.05;;;19.40;68.50;;;;;;5003086;28;20033;-74
2022/10/04 11:47:52;;;;;;;12.45;9.25;;;19.40;68.40;;;;;;5002541;28;20050;-76
2022/10/04 11:51:01;;;;;;;14.93;9.00;;;19.60;68.10;;;;;;5001581;28;20034;-82
2022/10/04 11:53:38;;;;;;;11.25;9.65;;;19.60;68.20;;;;;;4976791;28;20105;-74
2022/10/04 11:56:12;;;;;;;15.07;9.43;;;19.70;67.00;;;;;;4998573;28;20053;-77
2022/10/04 11:58:56;;;;;;;15.35;9.38;;;19.80;67.30;;;;;;4999304;28;20121;-75
2022/10/04 12:01:29;;;;;;;15.68;8.70;;;19.90;66.90;;;;;;4994021;28;20033;-75
2022/10/04 12:04:10;;;;;;;14.82;9.18;;;19.80;66.80;;;;;;4993764;28;20058;-76
2022/10/04 12:06:54;;;;;;;13.40;9.48;;;19.70;67.70;;;;;;4998808;28;20061;-77
2022/10/04 12:09:40;;;;;;;15.50;9.13;;;19.80;67.70;;;;;;5000722;28;20461;-75
2022/10/04 12:12:57;;;;;;;13.35;8.70;;;19.70;67.70;;;;;;4996630;28;20034;-76
2022/10/04 12:15:37;;;;;;;15.20;9.30;;;19.70;68.20;;;;;;4938193;28;20043;-76
2022/10/04 12:18:39;;;;;;;11.77;9.10;;;19.80;67.90;;;;;;4991558;28;20081;-76
2022/10/04 12:21:27;;;;;;;14.25;9.20;;;19.70;67.80;;;;;;5002848;28;20445;-76
2022/10/04 12:24:31;;;;;;;12.57;8.98;;;19.90;68.50;;;;;;5015216;28;20390;-76
2022/10/04 12:27:19;;;;;;;12.48;8.77;;;20.10;68.20;;;;;;5001681;28;20037;-75
2022/10/04 12:33:18;;;;;;;10.77;8.10;;;20.10;66.90;;;;;;5036072;28;20449;-76
2022/10/04 12:35:53;;;;;;;13.55;8.32;;;20.10;66.60;;;;;;5025322;28;20034;-76
2022/10/04 12:38:22;;;;;;;11.80;8.38;;;20.10;67.90;;;;;;5022916;28;20049;-77
2022/10/04 12:41:00;;;;;;;13.30;9.15;;;20.20;67.90;;;;;;5035406;28;20025;-75
2022/10/04 12:43:39;;;;;;;13.45;8.05;;;20.20;67.30;;;;;;5022027;28;20087;-76
2022/10/04 12:46:19;;;;;;;12.35;8.40;;;20.20;67.10;;;;;;5021062;28;20041;-75
2022/10/04 12:49:04;;;;;;;14.38;8.10;;;20.10;66.90;;;;;;5023329;28;20041;-76
2022/10/04 12:51:50;;;;;;;10.25;7.72;;;20.10;67.20;;;;;;5018239;28;20045;-75
2022/10/04 12:54:26;;;;;;;11.98;7.45;;;20.10;66.80;;;;;;5030897;28;20038;-77
2022/10/04 12:57:02;;;;;;;10.80;7.25;;;20.30;66.70;;;;;;5026220;28;20040;-74
2022/10/04 12:59:44;;;;;;;12.48;7.05;;;20.40;66.50;;;;;;5022219;28;20480;-77
2022/10/04 13:02:22;;;;;;;10.45;6.97;;;20.50;66.90;;;;;;5028537;28;20080;-75
2022/10/04 13:04:52;;;;;;;11.50;6.97;;;20.60;67.00;;;;;;5025635;28;20537;-75
2022/10/04 13:07:42;;;;;;;10.93;7.32;;;20.60;66.60;;;;;;5019981;28;20030;-74
2022/10/04 13:10:25;;;;;;;11.45;6.97;;;20.70;66.20;;;;;;5021496;28;20046;-77
2022/10/04 13:13:09;;;;;;;12.30;6.63;;;20.60;66.80;;;;;;5021847;28;20127;-76
2022/10/04 13:15:57;;;;;;;10.55;7.10;;;20.60;66.60;;;;;;5021366;28;20041;-75
2022/10/04 13:19:05;;;;;;;8.77;6.28;;;20.40;67.10;;;;;;5022237;28;20045;-75
2022/10/04 13:21:40;;;;;;;10.50;6.45;;;20.40;67.20;;;;;;5021640;28;20144;-75
2022/10/04 13:24:12;;;;;;;10.00;6.38;;;20.40;67.00;;;;;;5026297;28;20040;-77
2022/10/04 13:26:47;;;;;;;10.57;6.40;;;20.40;67.00;;;;;;5021876;28;20026;-75
2022/10/04 13:29:32;;;;;;;10.75;6.57;;;20.50;67.00;;;;;;5018620;28;20033;-79
2022/10/04 13:32:28;;;;;;;11.30;5.90;;;20.60;66.60;;;;;;5021498;28;20038;-75
2022/10/04 13:35:30;;;;;;;8.43;5.80;;;20.60;66.10;;;;;;5004572;28;20296;-77
2022/10/04 13:38:17;;;;;;;10.25;6.47;;;20.70;66.20;;;;;;5006399;28;20093;-76
2022/10/04 13:41:02;;;;;;;9.63;6.70;;;20.70;66.00;;;;;;5019636;28;20033;-75
2022/10/04 13:43:39;;;;;;;;;;;20.60;66.40;;;;;;5004503;28;20029;-78
2022/10/04 13:46:25;;;;;;;11.20;6.13;;;20.60;67.00;;;;;;5009989;28;19913;-75
2022/10/04 13:49:10;;;;;;;11.45;5.88;;;20.50;66.40;;;;;;5007906;28;20042;-75
2022/10/04 13:51:46;;;;;;;9.02;5.47;;;20.30;66.20;;;;;;5006982;28;20469;-75
2022/10/04 13:57:39;;;;;;;9.35;5.25;;;20.40;67.30;;;;;;5002210;28;20104;-77